Time;durP1;ratioP1;P1;durP2;ratioP2;P2;SDS_P1;SDS_P2;PMS_P1;PMS_P2;Temp;Humidity;BMP_temperature;BMP_pressure;BME280_temperature;BME280_humidity;BME280_pressure;Samples;Min_cycle;Max_cycle;Signal;HPM_P1;HPM_P2
2022/05/06 00:02:09;;;;;;;24.90;12.00;;;;;;;13.58;49.49;99428.05;105609;1283;98986;-67
2022/05/06 00:04:38;;;;;;;;;;;;;;;13.54;49.64;99426.86;105639;1282;112363;-68
2022/05/06 00:07:07;;;;;;;23.70;11.60;;;;;;;13.47;49.48;99427.81;105601;1282;95252;-67
2022/05/06 00:09:35;;;;;;;20.00;10.30;;;;;;;13.33;49.23;99432.41;105617;1282;108585;-68
2022/05/06 00:12:05;;;;;;;20.90;11.70;;;;;;;13.11;49.29;99436.59;105611;1283;98021;-68
2022/05/06 00:14:37;;;;;;;23.90;11.30;;;;;;;12.90;49.40;99432.49;105655;1283;96324;-67
2022/05/06 00:17:06;;;;;;;22.50;11.20;;;;;;;12.81;49.82;99432.70;105650;1283;111481;-67
2022/05/06 00:19:35;;;;;;;21.80;11.40;;;;;;;12.77;49.84;99428.34;105712;1282;97974;-66
2022/05/06 00:22:04;;;;;;;21.20;11.20;;;;;;;12.71;49.87;99429.13;105635;1282;108452;-67
2022/05/06 00:24:32;;;;;;;21.60;10.70;;;;;;;12.67;49.97;99427.14;105571;1283;97982;-66
2022/05/06 00:27:00;;;;;;;23.20;12.50;;;;;;;12.61;49.92;99427.38;105643;1283;96369;-69
2022/05/06 00:29:28;;;;;;;21.50;12.40;;;;;;;12.55;50.23;99428.41;105703;1282;110975;-67
2022/05/06 00:31:56;;;;;;;25.90;12.60;;;;;;;12.52;50.56;99428.06;105621;1283;95308;-67
2022/05/06 00:34:24;;;;;;;21.40;11.70;;;;;;;12.55;50.83;99422.91;105625;1283;108433;-67
2022/05/06 00:36:52;;;;;;;22.60;11.60;;;;;;;12.57;50.56;99424.34;105641;1283;97949;-69
2022/05/06 00:39:20;;;;;;;23.00;12.20;;;;;;;12.56;50.62;99419.80;105731;1283;97869;-67
2022/05/06 00:41:54;;;;;;;23.60;12.50;;;;;;;12.52;50.88;99418.98;105708;1281;112034;-68
2022/05/06 00:44:25;;;;;;;17.90;8.90;;;;;;;12.47;50.81;99421.36;105655;1282;95223;-67
2022/05/06 00:46:57;;;;;;;21.70;11.10;;;;;;;12.40;51.10;99422.58;105627;1283;108203;-67
2022/05/06 00:49:25;;;;;;;22.70;12.10;;;;;;;12.36;51.03;99421.63;105598;1282;96625;-68
2022/05/06 00:51:54;;;;;;;23.80;12.10;;;;;;;12.29;51.15;99418.94;105736;1283;97992;-67
2022/05/06 00:54:23;;;;;;;22.10;11.40;;;;;;;12.22;51.42;99417.48;105720;1283;112131;-68
2022/05/06 00:56:54;;;;;;;23.30;12.70;;;;;;;12.17;51.37;99413.96;105769;1283;96422;-68
2022/05/06 00:59:23;;;;;;;23.90;12.90;;;;;;;12.11;51.39;99414.42;105756;1282;107836;-71
2022/05/06 01:01:50;;;;;;;25.60;13.50;;;;;;;12.03;51.71;99420.63;105727;1283;97899;-68
2022/05/06 01:04:19;;;;;;;22.40;13.00;;;;;;;12.01;51.85;99423.51;105569;1282;97996;-70
2022/05/06 01:06:49;;;;;;;23.50;13.30;;;;;;;12.00;51.83;99424.25;105699;1281;111985;-68
2022/05/06 01:09:18;;;;;;;25.70;13.40;;;;;;;11.99;52.02;99419.02;105684;1283;97966;-68
2022/05/06 01:11:46;;;;;;;22.20;12.00;;;;;;;11.96;52.20;99422.42;105730;1282;108235;-70
2022/05/06 01:14:32;;;;;;;21.70;11.80;;;;;;;11.95;52.30;99419.99;105687;1283;97894;-69
2022/05/06 01:17:00;;;;;;;25.90;12.90;;;;;;;11.95;52.34;99421.96;105718;1282;96348;-68
2022/05/06 01:19:29;;;;;;;25.40;13.30;;;;;;;11.93;52.33;99418.34;105765;1283;114200;-67
2022/05/06 01:21:57;;;;;;;23.40;13.40;;;;;;;11.91;52.45;99421.46;105723;1283;98034;-69
2022/05/06 01:24:25;;;;;;;22.00;11.60;;;;;;;11.88;52.65;99421.84;105700;1283;107839;-69
2022/05/06 01:27:28;;;;;;;23.70;12.40;;;;;;;11.90;52.69;99416.95;105699;1283;97922;-68
2022/05/06 01:30:00;;;;;;;24.20;12.70;;;;;;;11.91;52.80;99417.74;105400;1282;97875;-70
2022/05/06 01:32:31;;;;;;;21.50;11.10;;;;;;;11.93;53.06;99414.98;105751;1283;111491;-71
2022/05/06 01:35:02;;;;;;;23.80;10.90;;;;;;;11.97;53.19;99412.91;105746;1283;97875;-69
2022/05/06 01:37:34;;;;;;;21.10;10.70;;;;;;;12.01;53.33;99414.01;105693;1283;108666;-68
2022/05/06 01:40:04;;;;;;;21.80;11.00;;;;;;;12.06;53.46;99416.35;105603;1282;96435;-68
2022/05/06 01:42:36;;;;;;;22.60;11.30;;;;;;;12.10;53.59;99419.59;105541;1282;97789;-69
2022/05/06 01:45:10;;;;;;;22.50;11.50;;;;;;;12.16;53.66;99420.98;105543;1283;111002;-68
2022/05/06 01:47:42;;;;;;;21.20;11.10;;;;;;;12.21;53.72;99422.95;105623;1283;98478;-69
2022/05/06 01:50:12;;;;;;;21.10;11.40;;;;;;;12.25;53.81;99421.39;105579;1283;108475;-69
2022/05/06 01:52:41;;;;;;;20.10;10.70;;;;;;;12.29;53.81;99421.44;105592;1283;98462;-68
2022/05/06 01:55:12;;;;;;;20.00;10.60;;;;;;;12.32;53.69;99424.90;105640;1282;97879;-68
2022/05/06 01:57:42;;;;;;;19.30;10.10;;;;;;;12.35;53.88;99432.39;105644;1283;112244;-67
2022/05/06 02:00:13;;;;;;;19.90;10.10;;;;;;;12.37;53.92;99427.06;105608;1283;97972;-68
2022/05/06 02:02:42;;;;;;;19.70;9.50;;;;;;;12.39;53.76;99428.16;105646;1283;107777;-69
2022/05/06 02:05:17;;;;;;;21.20;10.70;;;;;;;12.39;53.96;99429.39;105702;1282;97964;-69
2022/05/06 02:07:48;;;;;;;20.30;10.70;;;;;;;12.43;53.95;99432.70;105645;1283;98008;-68
2022/05/06 02:10:18;;;;;;;20.60;9.70;;;;;;;12.46;54.05;99435.96;105382;1282;112056;-68
2022/05/06 02:12:47;;;;;;;20.30;8.80;;;;;;;12.48;53.94;99435.83;105596;1283;97853;-68
2022/05/06 02:15:18;;;;;;;19.50;9.40;;;;;;;12.49;54.02;99434.18;105680;1282;107764;-68
2022/05/06 02:17:47;;;;;;;18.70;8.90;;;;;;;12.50;53.96;99438.70;105475;1283;98055;-69
2022/05/06 02:20:16;;;;;;;18.80;8.30;;;;;;;12.52;54.02;99434.66;105350;1284;97961;-67
2022/05/06 02:22:45;;;;;;;18.60;9.10;;;;;;;12.53;54.14;99435.46;105639;1283;110700;-67
2022/05/06 02:25:13;;;;;;;18.10;8.30;;;;;;;12.56;54.33;99435.80;105357;1282;97841;-69
2022/05/06 02:27:41;;;;;;;17.70;8.20;;;;;;;12.58;54.22;99443.08;105639;1283;108245;-67
2022/05/06 02:33:13;;;;;;;16.00;8.00;;;;;;;12.65;54.29;99447.22;105611;1282;97976;-67
2022/05/06 02:35:43;;;;;;;;;;;;;;;12.68;54.39;99442.77;105664;1283;112002;-68
2022/05/06 02:38:12;;;;;;;19.20;8.10;;;;;;;12.67;54.66;99436.77;105703;1283;96391;-67
2022/05/06 02:40:40;;;;;;;16.10;8.10;;;;;;;12.70;54.47;99431.76;105635;1283;110916;-70
2022/05/06 02:43:09;;;;;;;17.80;8.40;;;;;;;12.73;54.50;99429.02;105694;1282;97946;-67
2022/05/06 02:45:37;;;;;;;17.50;8.70;;;;;;;12.76;54.61;99431.66;105745;1283;97861;-67
2022/05/06 02:48:07;;;;;;;18.90;8.60;;;;;;;12.77;54.50;99433.19;105781;1281;109659;-67
2022/05/06 02:50:36;;;;;;;18.40;8.40;;;;;;;12.73;54.23;99433.49;105741;1283;95322;-65
2022/05/06 02:53:05;;;;;;;16.10;7.60;;;;;;;12.64;54.31;99432.86;105718;1282;107855;-68
2022/05/06 02:55:33;;;;;;;18.70;8.70;;;;;;;12.56;54.23;99437.91;105707;1282;98009;-69
2022/05/06 02:58:03;;;;;;;16.60;8.40;;;;;;;12.49;54.61;99443.21;105577;1283;97887;-68
2022/05/06 03:00:32;;;;;;;18.60;8.30;;;;;;;12.48;54.73;99442.42;105507;1283;111971;-68
2022/05/06 03:03:01;;;;;;;20.70;8.40;;;;;;;12.49;54.86;99443.91;105635;1283;97899;-70
2022/05/06 03:05:29;;;;;;;17.30;8.00;;;;;;;12.55;54.99;99445.34;105530;1282;108351;-70
2022/05/06 03:07:57;;;;;;;17.70;8.60;;;;;;;12.59;55.05;99441.27;105569;1283;96354;-69
2022/05/06 03:10:25;;;;;;;18.50;9.10;;;;;;;12.64;55.05;99444.65;106259;1282;95567;-68
2022/05/06 03:12:58;;;;;;;15.70;8.00;;;;;;;12.64;54.93;99449.05;105723;1282;112280;-69
2022/05/06 03:15:26;;;;;;;18.30;8.30;;;;;;;12.61;55.03;99453.58;105515;1282;97919;-71
2022/05/06 03:17:56;;;;;;;16.10;8.00;;;;;;;12.58;54.82;99452.20;105623;1283;106029;-68
2022/05/06 03:20:26;;;;;;;19.60;9.30;;;;;;;12.54;54.81;99452.13;105622;1282;95293;-67
2022/05/06 03:22:55;;;;;;;17.50;8.40;;;;;;;12.48;54.86;99450.74;105629;1282;97878;-68
2022/05/06 03:25:23;;;;;;;18.60;9.20;;;;;;;12.44;54.87;99453.28;105337;1282;111939;-68
2022/05/06 03:28:07;;;;;;;18.80;8.60;;;;;;;12.35;54.77;99455.83;105413;1282;97901;-69
2022/05/06 03:30:44;;;;;;;19.50;10.30;;;;;;;12.24;54.99;99461.98;105542;1282;108523;-69
2022/05/06 03:33:15;;;;;;;20.90;9.80;;;;;;;12.18;55.45;99472.16;105389;1282;97976;-69
2022/05/06 03:35:43;;;;;;;18.20;9.10;;;;;;;12.19;55.38;99472.44;105373;1282;97928;-68
2022/05/06 03:38:12;;;;;;;18.20;9.60;;;;;;;12.20;55.59;99475.45;105668;1283;112405;-68
2022/05/06 03:40:40;;;;;;;18.80;9.50;;;;;;;12.25;55.71;99471.17;105678;1282;98004;-69
2022/05/06 03:43:09;;;;;;;17.90;9.40;;;;;;;12.31;55.89;99471.27;104982;1282;623882;-67
2022/05/06 03:45:39;;;;;;;18.20;9.20;;;;;;;12.36;55.88;99474.58;105642;1283;95318;-71
2022/05/06 03:48:09;;;;;;;17.00;8.10;;;;;;;12.41;55.86;99480.31;105654;1283;97036;-69
2022/05/06 03:53:25;;;;;;;18.60;9.40;;;;;;;12.50;56.11;99485.14;105554;1281;95223;-67
2022/05/06 03:55:54;;;;;;;18.30;9.10;;;;;;;12.54;55.86;99483.08;105668;1283;108905;-66
2022/05/06 03:58:23;;;;;;;18.80;8.90;;;;;;;12.59;56.01;99485.91;105640;1283;97992;-67
2022/05/06 04:00:52;;;;;;;19.50;10.00;;;;;;;12.62;55.97;99487.98;105681;1282;98093;-68
2022/05/06 04:03:22;;;;;;;20.20;9.20;;;;;;;12.68;56.05;99494.71;105640;1283;112126;-68
2022/05/06 04:05:52;;;;;;;19.30;9.10;;;;;;;12.72;56.06;99492.82;105631;1282;96429;-67
2022/05/06 04:08:20;;;;;;;21.70;9.10;;;;;;;12.76;56.23;99497.30;105627;1283;107904;-68
2022/05/06 04:10:48;;;;;;;20.70;9.40;;;;;;;12.81;56.29;99499.80;105669;1283;97999;-67
2022/05/06 04:13:20;;;;;;;21.00;9.20;;;;;;;12.86;56.27;99503.33;105392;1282;97999;-69
2022/05/06 04:15:48;;;;;;;19.40;9.30;;;;;;;12.90;56.33;99501.56;105727;1283;112081;-68
2022/05/06 04:18:17;;;;;;;21.70;9.60;;;;;;;12.95;56.31;99498.20;105663;1283;97909;-68
2022/05/06 04:23:35;;;;;;;22.10;10.60;;;;;;;13.04;56.59;99500.22;105550;1281;95328;-68
2022/05/06 04:26:06;;;;;;;20.00;9.80;;;;;;;13.07;56.53;99498.70;105352;1282;96637;-68
2022/05/06 04:28:37;;;;;;;20.80;9.50;;;;;;;13.10;56.51;99502.55;105581;1282;112246;-69
2022/05/06 04:31:07;;;;;;;18.40;9.10;;;;;;;13.13;56.55;99504.53;105405;1282;97901;-70
2022/05/06 04:33:39;;;;;;;20.30;9.10;;;;;;;13.14;56.58;99510.31;105362;1283;107582;-69
2022/05/06 04:36:07;;;;;;;19.40;9.60;;;;;;;13.18;56.71;99512.98;105808;1283;98013;-69
2022/05/06 04:38:36;;;;;;;19.80;9.60;;;;;;;13.22;56.77;99508.20;105762;1282;96245;-68
2022/05/06 04:41:04;;;;;;;17.10;8.40;;;;;;;13.26;56.70;99508.33;105799;1282;112454;-68
2022/05/06 04:43:33;;;;;;;19.50;9.00;;;;;;;13.30;56.76;99508.91;105793;1283;96311;-68
2022/05/06 04:46:02;;;;;;;17.70;8.90;;;;;;;13.34;56.65;99508.73;105717;1283;108116;-71
2022/05/06 04:48:31;;;;;;;16.80;8.80;;;;;;;13.39;56.77;99511.25;105820;1282;97877;-70
2022/05/06 04:50:58;;;;;;;20.60;8.70;;;;;;;13.44;56.91;99511.09;105443;1283;95172;-70
2022/05/06 04:53:27;;;;;;;18.00;8.40;;;;;;;13.49;56.88;99509.77;105847;1283;111018;-70
2022/05/06 04:55:55;;;;;;;19.10;9.00;;;;;;;13.55;56.82;99508.63;105787;1282;97780;-70
2022/05/06 04:58:23;;;;;;;17.80;8.60;;;;;;;13.61;56.90;99507.12;105678;1282;109420;-67
2022/05/06 05:00:51;;;;;;;19.20;9.10;;;;;;;13.65;56.72;99508.23;105799;1283;97894;-68
2022/05/06 05:03:21;;;;;;;18.10;8.30;;;;;;;13.68;56.81;99503.14;105732;1283;95418;-70
2022/05/06 05:05:49;;;;;;;19.10;7.70;;;;;;;13.76;56.82;99503.96;105649;1283;111754;-68
2022/05/06 05:08:17;;;;;;;15.70;7.70;;;;;;;13.83;56.91;99509.79;105659;1282;97915;-68
2022/05/06 05:10:45;;;;;;;17.70;8.50;;;;;;;13.89;56.87;99508.82;105566;1282;110733;-69
2022/05/06 05:13:15;;;;;;;15.00;7.60;;;;;;;13.96;56.96;99505.25;105585;1283;97922;-68
2022/05/06 05:15:43;;;;;;;19.70;8.80;;;;;;;14.02;56.90;99505.32;105636;1283;98569;-68
2022/05/06 05:18:11;;;;;;;19.90;9.00;;;;;;;14.06;56.99;99507.30;105558;1283;110302;-63
2022/05/06 05:20:40;;;;;;;19.50;8.60;;;;;;;14.11;56.91;99505.45;105559;1283;97905;-68
2022/05/06 05:23:08;;;;;;;17.90;8.40;;;;;;;14.17;56.93;99499.12;105426;1281;109594;-68
2022/05/06 05:25:35;;;;;;;19.60;8.10;;;;;;;14.21;57.08;99499.17;105494;1283;97972;-68
2022/05/06 05:28:04;;;;;;;18.00;8.50;;;;;;;14.28;57.04;99498.92;105592;1281;97923;-71
2022/05/06 05:30:34;;;;;;;19.40;8.50;;;;;;;14.35;56.98;99492.09;105550;1282;111409;-68
2022/05/06 05:33:04;;;;;;;16.60;7.90;;;;;;;14.41;57.19;99495.93;105592;1283;97898;-68
2022/05/06 05:35:34;;;;;;;21.60;8.30;;;;;;;14.47;57.21;99499.73;105511;1282;108433;-69
2022/05/06 05:38:02;;;;;;;16.10;7.70;;;;;;;14.58;57.27;99505.79;105521;1282;97888;-69
2022/05/06 05:40:30;;;;;;;18.00;8.00;;;;;;;14.70;57.30;99508.39;105576;1281;97893;-69
2022/05/06 05:42:59;;;;;;;19.70;8.80;;;;;;;14.79;57.19;99505.37;105634;1282;112061;-69
2022/05/06 05:48:21;;;;;;;18.80;8.10;;;;;;;14.91;57.50;99509.70;105630;1283;107676;-69
2022/05/06 05:50:49;;;;;;;16.70;7.50;;;;;;;15.04;57.47;99510.59;105277;1282;97962;-70
2022/05/06 05:53:21;;;;;;;16.30;8.00;;;;;;;15.15;57.34;99511.61;105601;1282;97923;-70
2022/05/06 05:55:49;;;;;;;16.10;7.90;;;;;;;15.23;57.37;99512.41;105755;1281;111420;-73
2022/05/06 05:58:18;;;;;;;19.00;7.70;;;;;;;15.29;57.47;99506.84;105705;1282;97917;-71
2022/05/06 06:00:46;;;;;;;15.60;7.70;;;;;;;15.43;57.49;99511.64;105529;1282;108360;-69
2022/05/06 06:03:14;;;;;;;18.70;8.00;;;;;;;15.56;57.50;99511.20;105531;1282;98005;-70
2022/05/06 06:05:44;;;;;;;15.40;7.20;;;;;;;15.71;57.61;99510.82;105625;1282;95284;-69
2022/05/06 06:08:12;;;;;;;17.20;7.20;;;;;;;15.82;57.44;99511.80;105673;1282;112040;-67
2022/05/06 06:10:40;;;;;;;14.40;6.60;;;;;;;15.91;57.49;99515.00;105640;1283;97938;-66
2022/05/06 06:13:09;;;;;;;17.80;7.10;;;;;;;16.01;57.38;99519.14;105498;1282;108498;-69
2022/05/06 06:15:39;;;;;;;16.00;7.00;;;;;;;16.10;57.49;99520.46;105384;1282;97893;-69
2022/05/06 06:18:09;;;;;;;14.70;6.30;;;;;;;16.23;57.54;99523.50;105474;1282;97899;-69
2022/05/06 06:20:38;;;;;;;13.50;6.10;;;;;;;16.33;57.49;99524.13;105703;1283;112022;-69
2022/05/06 06:23:07;;;;;;;13.50;6.60;;;;;;;16.42;57.56;99523.94;105654;1282;97944;-69
2022/05/06 06:25:35;;;;;;;13.80;5.90;;;;;;;16.50;57.45;99524.44;105446;1282;108492;-68
2022/05/06 06:28:04;;;;;;;11.40;5.20;;;;;;;16.55;57.35;99523.47;105560;1283;95224;-68
2022/05/06 06:30:32;;;;;;;10.20;4.60;;;;;;;16.60;57.32;99521.21;105423;1282;97893;-69
2022/05/06 06:33:00;;;;;;;8.10;4.30;;;;;;;16.66;57.41;99523.38;105391;1282;111827;-69
2022/05/06 06:35:28;;;;;;;11.40;4.80;;;;;;;16.69;57.31;99527.38;106875;1282;96361;-69
2022/05/06 06:37:56;;;;;;;9.50;4.60;;;;;;;16.73;57.30;99527.94;107034;1281;108384;-69
2022/05/06 06:40:24;;;;;;;11.90;5.10;;;;;;;16.77;57.32;99529.49;105467;1282;97930;-69
2022/05/06 06:42:53;;;;;;;8.70;4.40;;;;;;;16.80;57.28;99530.87;105415;1282;97980;-70
2022/05/06 06:45:23;;;;;;;14.50;5.00;;;;;;;16.80;57.13;99533.91;105653;1283;112242;-66
2022/05/06 06:47:54;;;;;;;8.50;4.50;;;;;;;16.86;57.26;99534.30;105391;1282;97971;-69
2022/05/06 06:50:25;;;;;;;9.80;4.60;;;;;;;16.91;57.14;99539.73;105557;1282;108420;-69
2022/05/06 06:52:53;;;;;;;10.60;4.70;;;;;;;16.94;57.09;99543.07;105494;1282;98023;-70
2022/05/06 06:55:21;;;;;;;7.60;4.50;;;;;;;16.93;57.06;99545.98;105749;1282;97128;-70
2022/05/06 06:57:50;;;;;;;8.00;4.30;;;;;;;16.98;57.21;99541.80;105701;1281;111743;-69
2022/05/06 07:00:20;;;;;;;9.10;4.40;;;;;;;17.10;57.00;99539.32;105753;1281;97834;-69
2022/05/06 07:02:48;;;;;;;6.90;4.10;;;;;;;17.23;56.85;99537.58;105705;1282;108704;-69
2022/05/06 07:05:17;;;;;;;8.00;4.10;;;;;;;17.32;56.65;99537.28;105617;1282;97879;-69
2022/05/06 07:13:45;;;;;;;7.60;3.80;;;;;;;17.32;56.75;99534.02;105623;1283;96259;-69
2022/05/06 07:16:13;;;;;;;8.60;4.40;;;;;;;17.31;56.82;99535.20;105632;1283;108221;-68
2022/05/06 07:18:41;;;;;;;8.70;4.40;;;;;;;17.31;56.74;99535.96;105618;1282;97997;-69
2022/05/06 07:21:11;;;;;;;11.30;4.90;;;;;;;17.33;56.66;99537.67;105590;1282;98550;-67
2022/05/06 07:23:40;;;;;;;9.30;4.50;;;;;;;17.34;56.70;99533.98;105636;1282;112016;-70
2022/05/06 07:26:12;;;;;;;13.60;5.10;;;;;;;17.42;56.67;99530.64;105810;1282;95898;-69
2022/05/06 07:28:43;;;;;;;9.20;4.80;;;;;;;17.75;56.62;99531.80;105627;1282;108734;-69
2022/05/06 07:31:14;;;;;;;9.30;4.50;;;;;;;18.16;56.20;99531.71;105645;1282;97982;-68
2022/05/06 07:33:45;;;;;;;8.60;4.60;;;;;;;18.91;55.77;99527.95;105727;1283;97915;-69
2022/05/06 07:36:13;;;;;;;9.30;4.30;;;;;;;20.03;55.37;99522.79;105671;1282;112014;-68
2022/05/06 07:38:41;;;;;;;8.60;3.90;;;;;;;21.43;54.88;99524.13;105735;1283;96429;-69
2022/05/06 07:41:09;;;;;;;12.30;4.60;;;;;;;23.09;54.40;99516.59;105626;1282;108339;-70
2022/05/06 07:43:38;;;;;;;9.90;4.00;;;;;;;24.53;54.13;99519.05;105593;1282;97942;-68
2022/05/06 07:46:12;;;;;;;7.80;4.00;;;;;;;25.60;53.74;99520.15;105632;1281;95231;-69
2022/05/06 07:48:42;;;;;;;6.50;3.90;;;;;;;25.78;53.91;99520.23;105716;1281;112020;-68
2022/05/06 07:51:10;;;;;;;9.10;3.60;;;;;;;26.48;53.61;99517.46;105708;1283;97947;-70
2022/05/06 07:53:38;;;;;;;7.70;3.90;;;;;;;27.43;52.97;99513.67;105722;1281;108274;-67
2022/05/06 07:56:08;;;;;;;5.50;3.50;;;;;;;28.18;52.94;99513.40;105507;1281;98416;-68
2022/05/06 07:58:40;;;;;;;7.40;3.50;;;;;;;28.56;53.19;99517.95;105609;1282;97976;-69
2022/05/06 08:01:09;;;;;;;5.20;3.20;;;;;;;28.93;53.15;99514.50;105368;1282;112029;-68
2022/05/06 08:06:30;;;;;;;9.20;3.40;;;;;;;28.85;52.75;99510.42;105613;1282;108660;-67
2022/05/06 08:08:59;;;;;;;4.60;2.90;;;;;;;28.44;52.38;99514.17;105616;1282;97980;-68
2022/05/06 08:11:30;;;;;;;4.50;3.40;;;;;;;28.31;51.74;99517.83;105641;1283;96542;-69
2022/05/06 08:13:58;;;;;;;8.30;3.30;;;;;;;28.21;51.17;99521.17;105582;1282;112096;-69
2022/05/06 08:16:29;;;;;;;5.40;3.20;;;;;;;27.65;51.25;99522.69;105676;1282;98017;-69
2022/05/06 08:18:59;;;;;;;4.00;3.20;;;;;;;27.53;51.05;99521.40;105637;1283;108943;-69
2022/05/06 08:21:27;;;;;;;4.60;3.00;;;;;;;27.86;50.70;99518.71;105512;1282;97968;-69
2022/05/06 08:23:56;;;;;;;6.10;3.20;;;;;;;27.93;50.42;99516.20;105613;1283;96341;-68
2022/05/06 08:26:24;;;;;;;6.30;3.30;;;;;;;28.03;50.07;99515.75;105538;1282;111962;-67
2022/05/06 08:28:52;;;;;;;6.20;3.30;;;;;;;28.15;49.77;99516.03;105616;1283;97963;-68
2022/05/06 08:31:20;;;;;;;7.20;3.80;;;;;;;28.08;49.59;99517.52;105736;1283;108318;-67
2022/05/06 08:33:49;;;;;;;5.00;3.00;;;;;;;27.90;49.34;99514.58;105649;1282;98076;-68
2022/05/06 08:36:19;;;;;;;6.40;3.30;;;;;;;27.55;49.26;99515.36;105657;1283;98339;-67
2022/05/06 08:38:50;;;;;;;4.80;2.90;;;;;;;27.40;48.68;99514.26;105629;1282;112059;-68
2022/05/06 08:41:23;;;;;;;4.80;3.00;;;;;;;26.93;48.30;99520.78;105705;1283;97946;-68
2022/05/06 08:43:51;;;;;;;4.40;2.90;;;;;;;26.31;47.96;99524.23;105622;1283;107752;-68
2022/05/06 08:52:02;;;;;;;8.50;3.70;;;;;;;24.75;47.30;99536.04;105570;1282;111998;-69
2022/05/06 08:54:31;;;;;;;6.70;3.20;;;;;;;24.30;47.18;99533.48;105244;1283;96353;-69
2022/05/06 08:57:03;;;;;;;5.90;3.50;;;;;;;23.85;46.90;99537.02;105489;1282;108440;-68
2022/05/06 08:59:30;;;;;;;8.10;3.30;;;;;;;23.44;46.70;99536.08;105726;1281;96358;-69
2022/05/06 09:02:00;;;;;;;6.50;3.30;;;;;;;23.22;46.77;99542.43;105761;1283;97890;-70
2022/05/06 09:04:30;;;;;;;5.10;3.10;;;;;;;23.00;46.85;99541.02;105635;1282;112022;-70
2022/05/06 09:07:21;;;;;;;6.10;3.50;;;;;;;22.71;46.36;99544.61;105694;1282;97912;-69
2022/05/06 09:10:11;;;;;;;6.00;3.50;;;;;;;22.42;46.31;99550.08;105617;1282;106751;-69
2022/05/06 09:12:46;;;;;;;8.40;4.20;;;;;;;22.21;46.37;99554.02;105712;1283;97907;-68
2022/05/06 09:18:07;;;;;;;7.80;3.40;;;;;;;21.92;46.15;99556.04;105694;1282;112050;-69
2022/05/06 09:20:42;;;;;;;5.10;3.10;;;;;;;21.70;46.13;99556.92;105731;1283;97898;-68
2022/05/06 09:23:25;;;;;;;5.30;3.20;;;;;;;21.67;46.19;99559.02;105791;1282;108295;-70
2022/05/06 09:25:54;;;;;;;6.00;3.20;;;;;;;21.54;45.91;99561.38;105475;1282;97997;-70
2022/05/06 09:28:22;;;;;;;5.60;3.20;;;;;;;21.44;45.72;99555.43;106536;1281;97851;-68
2022/05/06 09:31:09;;;;;;;5.40;3.20;;;;;;;21.33;45.77;99556.92;105488;1282;112882;-69
2022/05/06 09:33:40;;;;;;;8.70;3.40;;;;;;;21.14;45.68;99557.02;105456;1282;97996;-68
2022/05/06 09:36:26;;;;;;;5.70;3.50;;;;;;;20.98;45.76;99553.37;105386;1284;108421;-69
2022/05/06 09:39:08;;;;;;;5.20;3.00;;;;;;;20.86;45.76;99557.00;105511;1282;96338;-68
2022/05/06 09:41:39;;;;;;;10.10;3.30;;;;;;;20.69;45.80;99561.20;105494;1283;97894;-67
2022/05/06 09:44:10;;;;;;;5.90;3.50;;;;;;;20.54;45.75;99558.09;105772;1281;110909;-68
2022/05/06 09:46:39;;;;;;;5.70;3.70;;;;;;;20.44;45.76;99560.52;105543;1282;97788;-67
2022/05/06 09:49:14;;;;;;;5.10;3.00;;;;;;;20.36;45.76;99561.16;105667;1281;108860;-71
2022/05/06 09:52:11;;;;;;;5.60;3.00;;;;;;;20.25;45.78;99564.64;105648;1282;97861;-69
2022/05/06 09:54:42;;;;;;;5.60;2.80;;;;;;;20.11;45.69;99562.14;105640;1281;97839;-67
2022/05/06 09:57:15;;;;;;;3.80;2.80;;;;;;;20.05;45.69;99564.10;105368;1283;111532;-66
2022/05/06 09:59:43;;;;;;;4.00;2.90;;;;;;;19.94;45.69;99561.12;105668;1283;97787;-70
2022/05/06 10:02:12;;;;;;;9.70;3.30;;;;;;;19.89;45.67;99564.25;105394;1282;108919;-69
2022/05/06 10:04:43;;;;;;;6.80;2.80;;;;;;;19.87;45.83;99562.13;105597;1282;97983;-68
2022/05/06 10:07:15;;;;;;;4.50;2.90;;;;;;;19.93;45.86;99563.34;105710;1282;96319;-69
2022/05/06 10:10:06;;;;;;;6.60;3.40;;;;;;;19.96;45.87;99560.34;105290;1282;111360;-68
2022/05/06 10:12:44;;;;;;;9.00;3.70;;;;;;;19.94;45.96;99557.67;105732;1283;97760;-68
2022/05/06 10:15:14;;;;;;;7.20;3.70;;;;;;;19.92;45.91;99559.80;105596;1281;107738;-68
2022/05/06 10:18:02;;;;;;;6.20;3.80;;;;;;;19.91;46.07;99558.20;105679;1283;97987;-68
2022/05/06 10:20:34;;;;;;;7.50;3.60;;;;;;;19.94;46.08;99560.67;105322;1284;96227;-69
2022/05/06 10:23:13;;;;;;;7.40;4.10;;;;;;;19.95;46.20;99560.25;105662;1282;111794;-68
2022/05/06 10:25:42;;;;;;;7.40;4.10;;;;;;;20.01;46.26;99560.20;105543;1282;97900;-69
2022/05/06 10:34:14;;;;;;;9.10;3.70;;;;;;;20.16;46.34;99555.75;105575;1282;96377;-69
2022/05/06 10:36:48;;;;;;;7.20;3.90;;;;;;;20.21;46.47;99557.66;105559;1282;111507;-68
2022/05/06 10:39:22;;;;;;;8.30;4.30;;;;;;;20.19;46.48;99560.27;105612;1283;97883;-68
2022/05/06 10:42:09;;;;;;;7.10;4.00;;;;;;;20.12;46.40;99560.09;105568;1283;108758;-68
2022/05/06 10:44:40;;;;;;;5.50;3.40;;;;;;;20.02;46.62;99554.23;105691;1283;95211;-68
2022/05/06 10:47:13;;;;;;;6.10;3.40;;;;;;;20.01;46.58;99558.00;105466;1282;98628;-68
2022/05/06 10:49:43;;;;;;;5.90;3.60;;;;;;;19.99;46.78;99558.42;105670;1282;111815;-68
2022/05/06 10:52:13;;;;;;;8.20;3.50;;;;;;;19.99;46.80;99557.86;105799;1283;96293;-68
2022/05/06 10:54:47;;;;;;;13.70;3.80;;;;;;;19.98;46.71;99561.86;105733;1282;108554;-67
2022/05/06 10:57:19;;;;;;;11.20;4.00;;;;;;;19.95;46.82;99559.77;105440;1282;96334;-68
2022/05/06 10:59:50;;;;;;;9.20;3.90;;;;;;;19.92;46.81;99554.39;105427;1284;97934;-67
2022/05/06 11:02:22;;;;;;;8.60;3.60;;;;;;;19.82;46.75;99556.56;105559;1282;112324;-70
2022/05/06 11:05:02;;;;;;;9.90;3.40;;;;;;;19.72;46.97;99558.26;105650;1283;97887;-67
2022/05/06 11:07:34;;;;;;;8.10;3.20;;;;;;;19.68;46.92;99551.31;105565;1282;108458;-69
2022/05/06 11:10:11;;;;;;;5.40;2.90;;;;;;;19.62;46.98;99547.59;105487;1282;98003;-66
2022/05/06 11:12:47;;;;;;;5.00;3.00;;;;;;;19.53;46.85;99545.59;105694;1283;96381;-68
2022/05/06 11:15:20;;;;;;;5.60;3.00;;;;;;;19.45;46.92;99545.19;105759;1283;111416;-69
2022/05/06 11:17:49;;;;;;;;;;;;;;;19.37;46.95;99542.77;105409;1282;97986;-69
2022/05/06 11:20:31;;;;;;;5.40;3.20;;;;;;;19.29;47.14;99539.82;105668;1281;108467;-70
2022/05/06 11:23:03;;;;;;;5.90;3.60;;;;;;;19.20;47.10;99542.65;105539;1282;97951;-69
2022/05/06 11:25:35;;;;;;;7.20;3.80;;;;;;;19.13;47.21;99540.52;105597;1282;97904;-68
2022/05/06 11:28:25;;;;;;;6.20;3.50;;;;;;;19.11;47.35;99533.54;105445;1284;111369;-72
2022/05/06 11:30:56;;;;;;;5.20;3.20;;;;;;;19.08;47.55;99532.00;105475;1282;97913;-70
2022/05/06 11:33:34;;;;;;;6.70;3.60;;;;;;;19.03;47.42;99527.77;105733;1283;108168;-68
2022/05/06 11:36:08;;;;;;;6.80;3.90;;;;;;;19.03;47.59;99525.69;105456;1283;95256;-69
2022/05/06 11:38:46;;;;;;;8.00;4.30;;;;;;;19.00;47.53;99533.51;105739;1282;95278;-69
2022/05/06 11:41:20;;;;;;;9.60;4.20;;;;;;;18.97;47.66;99527.06;105423;1282;112049;-71
2022/05/06 11:43:48;;;;;;;8.10;4.10;;;;;;;18.90;47.67;99525.37;105544;1282;96316;-65
2022/05/06 11:49:25;;;;;;;8.30;4.30;;;;;;;18.83;48.05;99514.19;105595;1282;96387;-68
2022/05/06 11:51:57;;;;;;;8.90;4.50;;;;;;;18.75;48.16;99513.38;105662;1281;95423;-69
2022/05/06 11:54:28;;;;;;;6.90;4.20;;;;;;;18.74;48.36;99511.61;105656;1281;112142;-71
2022/05/06 11:56:58;;;;;;;9.50;3.90;;;;;;;18.76;48.57;99513.61;105583;1281;97713;-68
2022/05/06 11:59:26;;;;;;;5.80;4.10;;;;;;;18.76;48.40;99516.84;105619;1282;108073;-69
2022/05/06 12:02:07;;;;;;;8.70;4.40;;;;;;;18.75;48.61;99521.55;105596;1283;95238;-70
2022/05/06 12:04:37;;;;;;;8.00;4.10;;;;;;;18.71;48.50;99518.38;105578;1282;97896;-69
2022/05/06 12:07:05;;;;;;;8.60;4.00;;;;;;;18.65;48.55;99524.42;105286;1283;111467;-69
2022/05/06 12:09:45;;;;;;;6.30;3.80;;;;;;;18.60;48.30;99526.71;105571;1282;97153;-67
2022/05/06 12:12:13;;;;;;;5.90;3.50;;;;;;;18.45;48.26;99532.49;105650;1283;107744;-69